createdAt,value
2023-05-09T00:00:53.825Z,40.50
2023-05-09T00:01:53.865Z,40.53
2023-05-09T00:02:53.857Z,40.52
2023-05-09T00:03:53.891Z,40.52
2023-05-09T00:04:53.934Z,40.48
2023-05-09T00:05:53.824Z,40.50
2023-05-09T00:06:53.833Z,40.53
2023-05-09T00:07:53.845Z,40.54
2023-05-09T00:08:53.865Z,40.50
2023-05-09T00:09:53.875Z,40.50
2023-05-09T00:10:54.012Z,40.47
2023-05-09T00:11:53.902Z,40.49
2023-05-09T00:12:53.926Z,40.53
2023-05-09T00:13:53.917Z,40.52
2023-05-09T00:14:53.924Z,40.51
2023-05-09T00:15:53.949Z,40.50
2023-05-09T00:16:54.054Z,40.47
2023-05-09T00:17:53.998Z,40.55
2023-05-09T00:18:53.962Z,40.52
2023-05-09T00:19:53.969Z,40.52
2023-05-09T00:20:53.984Z,40.52
2023-05-09T00:21:53.980Z,40.51
2023-05-09T00:22:53.985Z,40.51
2023-05-09T00:23:54.001Z,40.51
2023-05-09T00:24:54.003Z,40.50
2023-05-09T00:25:54.014Z,40.51
2023-05-09T00:26:54.136Z,40.49
2023-05-09T00:27:54.020Z,40.47
2023-05-09T00:28:54.021Z,40.50
2023-05-09T00:29:54.031Z,40.48
2023-05-09T00:30:54.032Z,40.48
2023-05-09T00:31:54.106Z,40.50
2023-05-09T00:32:54.194Z,40.47
2023-05-09T00:33:54.069Z,40.46
2023-05-09T00:34:54.066Z,40.50
2023-05-09T00:35:54.074Z,40.46
2023-05-09T00:36:54.084Z,40.44
2023-05-09T00:37:54.088Z,40.44
2023-05-09T00:38:54.094Z,40.48
2023-05-09T00:39:54.091Z,40.46
2023-05-09T00:40:54.093Z,40.45
2023-05-09T00:41:54.113Z,40.43
2023-05-09T00:42:54.246Z,40.40
2023-05-09T00:43:54.125Z,40.41
2023-05-09T00:44:54.132Z,40.42
2023-05-09T00:45:54.175Z,40.47
2023-05-09T00:46:54.156Z,40.43
2023-05-09T00:47:54.193Z,40.40
2023-05-09T00:48:54.178Z,40.42
2023-05-09T00:49:54.174Z,40.39
2023-05-09T00:50:54.184Z,40.43
2023-05-09T00:51:54.218Z,40.41
2023-05-09T00:52:54.207Z,40.40
2023-05-09T00:53:54.221Z,40.39
2023-05-09T00:54:54.233Z,40.40
2023-05-09T00:55:54.245Z,40.41
2023-05-09T00:56:54.261Z,40.41
2023-05-09T00:57:54.273Z,40.35
2023-05-09T00:58:54.421Z,40.36
2023-05-09T00:59:54.323Z,40.32
2023-05-09T01:00:54.332Z,40.36
2023-05-09T01:01:54.406Z,40.40
2023-05-09T01:02:54.420Z,40.35
2023-05-09T01:03:54.411Z,40.34
2023-05-09T01:04:54.383Z,40.35
2023-05-09T01:05:54.381Z,40.34
2023-05-09T01:06:54.381Z,40.31
2023-05-09T01:07:54.393Z,40.41
2023-05-09T01:08:54.398Z,40.35
2023-05-09T01:09:54.404Z,40.37
2023-05-09T01:10:54.417Z,40.34
2023-05-09T01:11:54.432Z,40.35
2023-05-09T01:12:54.543Z,40.35
2023-05-09T01:13:54.450Z,40.30
2023-05-09T01:14:54.588Z,40.36
2023-05-09T01:15:54.475Z,40.31
2023-05-09T01:16:54.490Z,40.35
2023-05-09T01:17:54.531Z,40.31
2023-05-09T01:18:54.509Z,40.32
2023-05-09T01:19:54.521Z,40.32
2023-05-09T01:20:54.542Z,40.27
2023-05-09T01:21:54.541Z,40.31
2023-05-09T01:22:54.549Z,40.31
2023-05-09T01:23:54.567Z,40.29
2023-05-09T01:24:54.585Z,40.27
2023-05-09T01:25:54.608Z,40.34
2023-05-09T01:26:54.620Z,40.34
2023-05-09T01:27:54.622Z,40.30
2023-05-09T01:28:54.618Z,40.28
2023-05-09T01:29:54.631Z,40.31
2023-05-09T01:30:54.825Z,40.30
2023-05-09T01:31:54.660Z,40.28
2023-05-09T01:32:54.680Z,40.28
2023-05-09T01:33:54.673Z,40.28
2023-05-09T01:34:54.688Z,40.30
2023-05-09T01:35:54.692Z,40.25
2023-05-09T01:36:54.700Z,40.30
2023-05-09T01:37:54.714Z,40.29
2023-05-09T01:38:54.702Z,40.30
2023-05-09T01:39:54.704Z,40.26
2023-05-09T01:40:54.723Z,40.30
2023-05-09T01:41:54.736Z,40.25
2023-05-09T01:42:54.761Z,40.29
2023-05-09T01:43:54.788Z,40.25
2023-05-09T01:44:54.831Z,40.27
2023-05-09T01:45:54.819Z,40.24
2023-05-09T01:46:55.111Z,40.27
2023-05-09T01:47:54.867Z,40.23
2023-05-09T01:48:54.825Z,40.25
2023-05-09T01:49:54.855Z,40.22
2023-05-09T01:50:54.859Z,40.21
2023-05-09T01:51:54.865Z,40.23
2023-05-09T01:52:54.859Z,40.25
2023-05-09T01:53:54.868Z,40.27
2023-05-09T01:54:54.871Z,40.25
2023-05-09T01:55:54.883Z,40.24
2023-05-09T01:56:54.905Z,40.21
2023-05-09T01:57:54.938Z,40.19
2023-05-09T01:58:54.959Z,40.28
2023-05-09T01:59:54.969Z,40.20
2023-05-09T02:00:55.022Z,40.25
2023-05-09T02:01:55.029Z,40.17
2023-05-09T02:02:55.305Z,40.23
2023-05-09T02:03:55.054Z,40.23
2023-05-09T02:04:55.076Z,40.20
2023-05-09T02:05:55.096Z,40.23
2023-05-09T02:06:55.112Z,40.18
2023-05-09T02:07:55.115Z,40.23
2023-05-09T02:08:55.127Z,40.23
2023-05-09T02:09:55.156Z,40.19
2023-05-09T02:10:55.166Z,40.20
2023-05-09T02:11:55.182Z,40.16
2023-05-09T02:12:55.273Z,40.16
2023-05-09T02:13:55.222Z,40.17
2023-05-09T02:14:55.227Z,40.17
2023-05-09T02:15:55.255Z,40.19
2023-05-09T02:16:55.299Z,40.15
2023-05-09T02:17:55.289Z,40.17
2023-05-09T02:18:55.427Z,40.19
2023-05-09T02:19:55.311Z,40.19
2023-05-09T02:20:55.346Z,40.14
2023-05-09T02:21:55.343Z,40.15
2023-05-09T02:22:55.380Z,40.11
2023-05-09T02:23:55.403Z,40.16
2023-05-09T02:24:55.394Z,40.15
2023-05-09T02:25:55.426Z,40.16
2023-05-09T02:26:55.413Z,40.14
2023-05-09T02:27:55.430Z,40.19
2023-05-09T02:28:55.447Z,40.13
2023-05-09T02:29:55.469Z,40.12
2023-05-09T02:30:55.485Z,40.13
2023-05-09T02:31:55.587Z,40.11
2023-05-09T02:32:55.603Z,40.13
2023-05-09T02:33:55.559Z,40.11
2023-05-09T02:34:55.707Z,40.09
2023-05-09T02:35:55.612Z,40.13
2023-05-09T02:36:55.606Z,40.11
2023-05-09T02:37:55.632Z,40.12
2023-05-09T02:38:55.653Z,40.07
2023-05-09T02:39:55.656Z,40.13
2023-05-09T02:40:55.650Z,40.10
2023-05-09T02:41:55.659Z,40.12
2023-05-09T02:42:55.662Z,40.09
2023-05-09T02:43:55.667Z,40.14
2023-05-09T02:44:55.698Z,40.10
2023-05-09T02:45:55.741Z,40.07
2023-05-09T02:46:55.734Z,40.07
2023-05-09T02:47:55.858Z,40.07
2023-05-09T02:48:55.754Z,40.12
2023-05-09T02:49:55.739Z,40.09
2023-05-09T02:50:55.873Z,40.12
2023-05-09T02:51:55.779Z,40.11
2023-05-09T02:52:55.781Z,40.08
2023-05-09T02:53:55.771Z,40.09
2023-05-09T02:54:55.792Z,40.07
2023-05-09T02:55:55.791Z,40.05
2023-05-09T02:56:55.796Z,40.08
2023-05-09T02:58:05.606Z,40.05
2023-05-09T02:58:55.782Z,40.08
2023-05-09T02:59:55.788Z,40.07
2023-05-09T03:00:55.766Z,40.04
2023-05-09T03:01:55.850Z,40.04
2023-05-09T03:02:55.880Z,40.08
2023-05-09T03:03:55.813Z,40.04
2023-05-09T03:04:55.738Z,40.04
2023-05-09T03:05:55.749Z,40.02
2023-05-09T03:06:55.882Z,40.00
2023-05-09T03:07:55.733Z,40.05
2023-05-09T03:08:55.734Z,40.05
2023-05-09T03:09:55.714Z,40.01
2023-05-09T03:10:55.724Z,40.02
2023-05-09T03:11:55.700Z,40.02
2023-05-09T03:12:55.746Z,40.02
2023-05-09T03:13:55.684Z,40.02
2023-05-09T03:14:55.679Z,40.01
2023-05-09T03:15:55.689Z,40.04
2023-05-09T03:16:55.664Z,40.05
2023-05-09T03:17:55.728Z,39.98
2023-05-09T03:18:55.655Z,40.01
2023-05-09T03:19:55.649Z,39.95
2023-05-09T03:20:55.636Z,40.00
2023-05-09T03:21:55.635Z,40.05
2023-05-09T03:22:55.742Z,40.01
2023-05-09T03:23:55.616Z,40.04
2023-05-09T03:24:55.620Z,40.05
2023-05-09T03:25:55.607Z,40.04
2023-05-09T03:26:55.606Z,40.00
2023-05-09T03:27:55.590Z,39.98
2023-05-09T03:28:55.578Z,40.00
2023-05-09T03:29:55.574Z,40.01
2023-05-09T03:30:55.564Z,39.99
2023-05-09T03:31:55.613Z,40.04
2023-05-09T03:32:55.646Z,39.98
2023-05-09T03:33:55.547Z,40.00
2023-05-09T03:34:55.539Z,40.01
2023-05-09T03:35:55.533Z,40.01
2023-05-09T03:36:55.545Z,39.98
2023-05-09T03:37:55.530Z,39.98
2023-05-09T03:38:55.643Z,39.94
2023-05-09T03:39:55.532Z,40.00
2023-05-09T03:40:55.506Z,39.98
2023-05-09T03:41:55.490Z,39.98
2023-05-09T03:42:55.491Z,39.96
2023-05-09T03:43:55.500Z,39.98
2023-05-09T03:44:55.480Z,39.96
2023-05-09T03:45:55.477Z,39.98
2023-05-09T03:46:55.505Z,39.93
2023-05-09T03:47:55.457Z,39.97
2023-05-09T03:48:55.447Z,39.96
2023-05-09T03:49:55.464Z,40.01
2023-05-09T03:50:55.422Z,39.95
2023-05-09T03:51:55.427Z,39.94
2023-05-09T03:52:55.449Z,39.98
2023-05-09T03:53:55.425Z,39.96
2023-05-09T03:54:55.535Z,39.96
2023-05-09T03:55:55.395Z,39.96
2023-05-09T03:56:55.397Z,39.95
2023-05-09T03:57:55.388Z,39.97
2023-05-09T03:58:55.388Z,39.97
2023-05-09T03:59:55.382Z,39.94
2023-05-09T04:00:55.376Z,39.95
2023-05-09T04:01:55.412Z,39.94
2023-05-09T04:02:55.424Z,39.94
2023-05-09T04:03:55.402Z,39.90
2023-05-09T04:04:55.365Z,39.89
2023-05-09T04:05:55.371Z,39.92
2023-05-09T04:06:55.387Z,39.90
2023-05-09T04:07:55.414Z,39.96
2023-05-09T04:08:55.441Z,39.91
2023-05-09T04:09:55.464Z,39.96
2023-05-09T04:10:55.628Z,39.92
2023-05-09T04:11:55.519Z,39.88
2023-05-09T04:12:55.624Z,39.92
2023-05-09T04:13:55.591Z,39.90
2023-05-09T04:14:55.612Z,39.89
2023-05-09T04:15:55.648Z,39.90
2023-05-09T04:16:55.751Z,39.91
2023-05-09T04:17:55.754Z,39.89
2023-05-09T04:18:55.744Z,39.86
2023-05-09T04:19:55.751Z,39.87
2023-05-09T04:20:55.776Z,39.88
2023-05-09T04:21:55.824Z,39.85
2023-05-09T04:22:55.831Z,39.91
2023-05-09T04:23:55.872Z,39.88
2023-05-09T04:24:55.853Z,39.88
2023-05-09T04:25:55.878Z,39.85
2023-05-09T04:26:56.016Z,39.87
2023-05-09T04:27:55.928Z,39.82
2023-05-09T04:28:55.951Z,39.87
2023-05-09T04:29:55.983Z,39.91
2023-05-09T04:30:56.072Z,39.85
2023-05-09T04:31:56.204Z,39.86
2023-05-09T04:32:56.019Z,39.86
2023-05-09T04:33:56.018Z,39.88
2023-05-09T04:34:56.010Z,39.82
2023-05-09T04:35:56.019Z,39.81
2023-05-09T04:36:56.029Z,39.85
2023-05-09T04:37:56.024Z,39.82
2023-05-09T04:38:56.037Z,39.84
2023-05-09T04:39:56.038Z,39.81
2023-05-09T04:40:56.064Z,39.86
2023-05-09T04:41:56.086Z,39.82
2023-05-09T04:42:56.229Z,39.82
2023-05-09T04:43:56.108Z,39.81
2023-05-09T04:44:57.688Z,39.88
2023-05-09T04:45:56.197Z,39.81
2023-05-09T04:46:56.184Z,39.84
2023-05-09T04:47:56.191Z,39.82
2023-05-09T04:48:56.184Z,39.84
2023-05-09T04:49:56.205Z,39.82
2023-05-09T04:50:56.219Z,39.80
2023-05-09T04:51:56.237Z,39.79
2023-05-09T04:52:56.277Z,39.81
2023-05-09T04:53:56.259Z,39.80
2023-05-09T04:54:56.281Z,39.82
2023-05-09T04:55:56.289Z,39.84
2023-05-09T04:57:09.813Z,39.80
2023-05-09T04:57:56.295Z,39.84
2023-05-09T04:58:56.409Z,39.82
2023-05-09T04:59:56.276Z,39.79
2023-05-09T05:00:56.266Z,39.80
2023-05-09T05:01:56.289Z,39.79
2023-05-09T05:02:56.283Z,39.80
2023-05-09T05:03:56.246Z,39.82
2023-05-09T05:05:10.107Z,39.77
2023-05-09T05:05:56.234Z,39.78
2023-05-09T05:06:56.237Z,39.82
2023-05-09T05:07:56.228Z,39.82
2023-05-09T05:08:56.216Z,39.77
2023-05-09T05:09:56.214Z,39.80
2023-05-09T05:10:56.211Z,39.77
2023-05-09T05:12:01.809Z,39.81
2023-05-09T05:12:56.231Z,39.82
2023-05-09T05:13:56.196Z,39.78
2023-05-09T05:14:56.321Z,39.76
2023-05-09T05:15:56.204Z,39.77
2023-05-09T05:16:56.165Z,39.80
2023-05-09T05:17:56.177Z,39.77
2023-05-09T05:18:56.158Z,39.80
2023-05-09T05:19:56.154Z,39.76
2023-05-09T05:20:56.367Z,39.78
2023-05-09T05:21:56.151Z,39.77
2023-05-09T05:22:56.488Z,39.74
2023-05-09T05:23:56.149Z,39.80
2023-05-09T05:24:56.224Z,39.80
2023-05-09T05:25:56.124Z,39.72
2023-05-09T05:26:56.115Z,39.74
2023-05-09T05:27:56.503Z,39.74
2023-05-09T05:28:56.098Z,39.78
2023-05-09T05:29:56.094Z,39.68
2023-05-09T05:30:56.220Z,39.69
2023-05-09T05:31:56.570Z,39.73
2023-05-09T05:32:56.118Z,39.73
2023-05-09T05:33:56.077Z,39.69
2023-05-09T05:34:56.055Z,39.68
2023-05-09T05:35:56.065Z,39.70
2023-05-09T05:36:56.062Z,39.67
2023-05-09T05:37:56.504Z,39.67
2023-05-09T05:38:56.372Z,39.72
2023-05-09T05:39:56.030Z,39.65
2023-05-09T05:40:56.018Z,39.66
2023-05-09T05:41:56.036Z,39.72
2023-05-09T05:42:56.502Z,39.69
2023-05-09T05:44:03.481Z,39.73
2023-05-09T05:44:56.011Z,39.69
2023-05-09T05:45:56.016Z,39.74
2023-05-09T05:46:56.144Z,39.85
2023-05-09T05:47:56.081Z,40.10
2023-05-09T05:48:55.969Z,40.35
2023-05-09T05:49:55.967Z,40.40
2023-05-09T05:50:55.958Z,40.43
2023-05-09T05:51:55.959Z,40.41
2023-05-09T12:41:39.130Z,37.61
2023-05-09T12:42:31.053Z,37.37
2023-05-09T12:43:31.053Z,36.23
2023-05-09T12:44:31.040Z,36.03
2023-05-09T12:45:31.022Z,35.73
2023-05-09T12:46:31.044Z,35.35
2023-05-09T12:47:31.019Z,35.57
2023-05-09T12:48:30.996Z,35.87
2023-05-09T12:49:31.018Z,35.82
2023-05-09T12:50:30.989Z,35.25
2023-05-09T12:51:30.979Z,35.35
2023-05-09T12:52:30.972Z,35.49
2023-05-09T12:53:30.962Z,35.23
2023-05-09T12:54:30.980Z,34.25
2023-05-09T12:55:31.229Z,34.73
2023-05-09T12:56:31.088Z,33.95
2023-05-09T12:57:31.751Z,34.46
2023-05-09T12:58:31.200Z,34.87
2023-05-09T12:59:31.272Z,34.85
2023-05-09T13:00:31.778Z,34.81
2023-05-09T13:01:31.505Z,34.82
2023-05-09T13:02:31.498Z,35.07
2023-05-09T13:03:31.536Z,35.15
2023-05-09T13:04:31.572Z,35.33
2023-05-09T13:05:31.737Z,35.30
2023-05-09T13:06:31.651Z,35.37
2023-05-09T13:07:31.701Z,35.35
2023-05-09T13:08:31.754Z,34.69
2023-05-09T13:09:31.799Z,34.45
2023-05-09T13:10:31.830Z,34.59
2023-05-09T13:11:31.876Z,34.99
2023-05-09T13:13:32.063Z,35.38
2023-05-09T13:14:31.975Z,35.41
2023-05-09T13:15:32.242Z,35.16
2023-05-09T13:16:31.998Z,35.07
2023-05-09T13:17:31.934Z,35.33
2023-05-09T13:18:31.894Z,35.46
2023-05-09T13:19:31.890Z,35.57
2023-05-09T13:20:31.900Z,35.66
2023-05-09T13:21:32.240Z,35.74
2023-05-09T13:22:31.869Z,35.72
2023-05-09T13:23:31.862Z,35.72
2023-05-09T13:24:31.853Z,35.76
2023-05-09T13:25:31.846Z,36.10
2023-05-09T13:26:31.856Z,37.41
2023-05-09T13:27:31.854Z,35.90
2023-05-09T13:28:31.824Z,36.60
2023-05-09T13:29:31.931Z,36.81
2023-05-09T13:30:31.823Z,37.10
2023-05-09T13:31:32.246Z,37.30
2023-05-09T13:32:31.836Z,37.97
2023-05-09T13:33:31.888Z,38.81
2023-05-09T13:34:31.803Z,39.84
2023-05-09T13:35:31.787Z,40.98
2023-05-09T13:36:31.794Z,41.91
2023-05-09T13:37:31.815Z,42.23
2023-05-09T13:38:31.847Z,42.56
2023-05-09T13:39:31.876Z,42.23
2023-05-09T13:40:32.251Z,42.20
2023-05-09T13:41:32.252Z,42.39
2023-05-09T13:42:32.004Z,42.67
2023-05-09T13:43:32.040Z,42.98
2023-05-09T13:44:32.106Z,43.30
2023-05-09T13:45:32.377Z,43.42
2023-05-09T13:46:32.292Z,43.54
2023-05-09T13:47:32.247Z,43.42
2023-05-09T13:48:32.320Z,43.47
2023-05-09T13:49:32.242Z,43.69
2023-05-09T13:50:32.293Z,43.95
2023-05-09T13:51:32.331Z,43.97
2023-05-09T13:52:32.361Z,44.09
2023-05-09T13:53:32.411Z,44.11
2023-05-09T13:54:32.415Z,44.12
2023-05-09T13:55:32.439Z,44.07
2023-05-09T13:56:32.490Z,43.94
2023-05-09T13:57:32.527Z,43.82
2023-05-09T13:58:32.575Z,43.76
2023-05-09T13:59:32.922Z,43.73
2023-05-09T14:00:32.666Z,43.70
2023-05-09T14:01:32.870Z,43.61
2023-05-09T14:02:32.775Z,43.64
2023-05-09T14:03:32.844Z,43.52
2023-05-09T14:04:32.836Z,43.51
2023-05-09T14:05:32.936Z,43.51
2023-05-09T14:06:32.926Z,43.46
2023-05-09T14:07:32.980Z,43.40
2023-05-09T14:08:33.026Z,43.35
2023-05-09T14:09:33.059Z,43.27
2023-05-09T14:10:33.138Z,43.15
2023-05-09T14:11:33.138Z,43.12
2023-05-09T14:12:33.178Z,43.10
2023-05-09T14:13:33.222Z,43.08
2023-05-09T14:14:33.291Z,43.04
2023-05-09T14:15:33.436Z,43.01
2023-05-09T14:16:33.416Z,42.98
2023-05-09T14:17:33.503Z,42.94
2023-05-09T14:18:33.384Z,42.93
2023-05-09T14:19:33.414Z,42.98
2023-05-09T14:20:34.450Z,42.91
2023-05-09T14:21:33.501Z,42.89
2023-05-09T14:22:33.556Z,42.86
2023-05-09T14:23:33.558Z,42.82
2023-05-09T14:24:33.579Z,42.78
2023-05-09T14:25:33.620Z,42.79
2023-05-09T14:26:33.658Z,42.73
2023-05-09T14:27:33.707Z,42.73
2023-05-09T14:28:33.770Z,42.70
2023-05-09T14:29:33.787Z,42.66
2023-05-09T14:30:33.822Z,42.67
2023-05-09T14:31:33.940Z,42.61
2023-05-09T14:32:33.908Z,42.61
2023-05-09T14:33:34.068Z,42.53
2023-05-09T14:34:33.996Z,42.49
2023-05-09T14:35:34.367Z,42.46
2023-05-09T14:36:34.069Z,42.47
2023-05-09T14:37:34.118Z,42.43
2023-05-09T14:38:34.154Z,42.41
2023-05-09T14:39:34.177Z,42.41
2023-05-09T14:40:34.199Z,42.34
2023-05-09T14:41:34.199Z,42.31
2023-05-09T14:42:34.205Z,42.34
2023-05-09T14:43:34.213Z,42.34
2023-05-09T14:44:34.230Z,42.31
2023-05-09T14:45:41.650Z,42.28
2023-05-09T14:46:34.292Z,42.25
2023-05-09T14:47:35.273Z,42.18
2023-05-09T14:48:34.230Z,42.14
2023-05-09T14:49:34.347Z,42.08
2023-05-09T14:50:34.255Z,42.09
2023-05-09T14:51:34.205Z,42.12
2023-05-09T14:52:34.205Z,42.08
2023-05-09T14:53:34.205Z,42.07
2023-05-09T14:54:34.188Z,42.04
2023-05-09T14:55:34.222Z,42.04
2023-05-09T14:56:34.171Z,42.06
2023-05-09T14:57:34.184Z,42.02
2023-05-09T14:58:34.162Z,41.95
2023-05-09T14:59:36.697Z,41.98
2023-05-09T15:00:34.144Z,41.89
2023-05-09T15:01:34.226Z,41.93
2023-05-09T15:02:34.146Z,41.88
2023-05-09T15:03:34.126Z,41.89
2023-05-09T15:04:34.181Z,41.81
2023-05-09T15:05:34.410Z,41.84
2023-05-09T15:06:34.116Z,41.82
2023-05-09T15:07:34.098Z,41.81
2023-05-09T15:08:34.083Z,41.82
2023-05-09T15:09:34.080Z,41.77
2023-05-09T15:10:34.077Z,41.76
2023-05-09T15:11:47.052Z,41.72
2023-05-09T15:12:34.057Z,41.68
2023-05-09T15:13:34.105Z,41.70
2023-05-09T15:14:34.036Z,41.68
2023-05-09T15:15:34.043Z,41.60
2023-05-09T15:16:34.064Z,41.65
2023-05-09T15:17:34.033Z,41.58
2023-05-09T15:18:34.028Z,41.58
2023-05-09T15:19:34.033Z,41.56
2023-05-09T15:20:34.027Z,41.57
2023-05-09T15:21:34.152Z,41.53
2023-05-09T15:22:33.992Z,41.54
2023-05-09T15:23:34.036Z,41.43
2023-05-09T15:24:33.983Z,41.50
2023-05-09T15:25:34.004Z,41.48
2023-05-09T15:26:33.987Z,41.46
2023-05-09T15:27:34.023Z,41.45
2023-05-09T15:28:33.995Z,41.44
2023-05-09T15:29:33.938Z,41.41
2023-05-09T15:30:35.318Z,41.37
2023-05-09T15:31:34.009Z,41.37
2023-05-09T15:32:33.943Z,41.30
2023-05-09T15:33:33.927Z,41.35
2023-05-09T15:34:33.909Z,41.33
2023-05-09T15:35:33.922Z,41.33
2023-05-09T15:36:33.963Z,41.27
2023-05-09T15:37:35.737Z,41.27
2023-05-09T15:38:33.886Z,41.22
2023-05-09T15:39:33.886Z,41.18
2023-05-09T15:40:33.868Z,41.11
2023-05-09T15:41:33.870Z,41.11
2023-05-09T15:42:33.858Z,41.13
2023-05-09T15:43:33.851Z,41.11
2023-05-09T15:44:33.844Z,41.08
2023-05-09T15:45:33.876Z,41.10
2023-05-09T15:46:33.923Z,41.14
2023-05-09T15:47:33.852Z,41.12
2023-05-09T15:48:33.854Z,41.13
2023-05-09T15:49:33.812Z,41.10
2023-05-09T15:50:33.825Z,41.03
2023-05-09T15:51:33.798Z,41.04
2023-05-09T15:52:33.790Z,41.00
2023-05-09T15:53:33.927Z,40.99
2023-05-09T15:54:33.804Z,40.95
2023-05-09T15:55:33.809Z,40.93
2023-05-09T15:56:33.771Z,40.93
2023-05-09T15:57:33.800Z,40.88
2023-05-09T15:58:33.762Z,40.92
2023-05-09T15:59:33.754Z,40.88
2023-05-09T16:00:33.759Z,40.88
2023-05-09T16:01:35.411Z,40.92
2023-05-09T16:02:33.840Z,40.85
2023-05-09T16:03:33.826Z,40.86
2023-05-09T16:04:33.732Z,40.85
2023-05-09T16:05:33.734Z,40.85
2023-05-09T16:06:33.713Z,40.80
2023-05-09T16:07:35.504Z,40.81
2023-05-09T16:08:33.686Z,40.80
2023-05-09T16:09:33.817Z,40.80
2023-05-09T16:10:33.744Z,40.76
2023-05-09T16:11:33.677Z,40.77
2023-05-09T16:12:33.681Z,40.79
2023-05-09T16:13:35.771Z,40.77
2023-05-09T16:14:33.707Z,40.84
2023-05-09T16:15:33.644Z,40.82
2023-05-09T16:16:33.715Z,40.82
2023-05-09T16:17:33.641Z,40.78
2023-05-09T16:18:33.662Z,40.85
2023-05-09T16:19:35.700Z,40.79
2023-05-09T16:20:33.617Z,40.83
2023-05-09T16:21:33.671Z,40.87
2023-05-09T16:22:33.606Z,40.83
2023-05-09T16:23:33.598Z,40.89
2023-05-09T16:24:33.597Z,40.89
2023-05-09T16:25:35.282Z,40.84
2023-05-09T16:26:33.577Z,40.89
2023-05-09T16:27:33.579Z,40.88
2023-05-09T16:28:33.562Z,40.89
2023-05-09T16:29:33.555Z,40.89
2023-05-09T16:30:33.552Z,40.94
2023-05-09T16:31:35.713Z,40.92
2023-05-09T16:32:33.595Z,40.91
2023-05-09T16:33:33.533Z,40.91
2023-05-09T16:34:33.526Z,40.91
2023-05-09T16:35:33.529Z,40.93
2023-05-09T16:36:33.586Z,40.91
2023-05-09T16:37:35.428Z,40.91
2023-05-09T16:38:33.505Z,40.91
2023-05-09T16:39:33.496Z,40.84
2023-05-09T16:40:33.483Z,40.92
2023-05-09T16:41:33.601Z,40.87
2023-05-09T16:42:33.473Z,40.87
2023-05-09T16:43:33.459Z,40.86
2023-05-09T16:44:33.467Z,40.88
2023-05-09T16:45:33.486Z,40.89
2023-05-09T16:46:33.454Z,40.88
2023-05-09T16:47:33.494Z,40.90
2023-05-09T16:48:33.425Z,40.86
2023-05-09T16:49:33.421Z,40.95
2023-05-09T16:50:33.420Z,40.92
2023-05-09T16:51:33.407Z,40.93
2023-05-09T16:52:33.402Z,40.91
2023-05-09T16:53:33.396Z,40.92
2023-05-09T16:54:33.389Z,40.94
2023-05-09T16:55:33.381Z,40.94
2023-05-09T16:56:33.377Z,40.96
2023-05-09T16:57:33.516Z,40.98
2023-05-09T16:58:34.440Z,41.00
2023-05-09T16:59:33.373Z,40.98
2023-05-09T17:00:33.360Z,40.97
2023-05-09T17:01:33.476Z,40.97
2023-05-09T17:02:33.383Z,40.95
2023-05-09T17:03:33.333Z,40.90
2023-05-09T17:04:34.738Z,40.93
2023-05-09T17:05:33.318Z,40.98
2023-05-09T17:06:33.314Z,40.99
2023-05-09T17:07:33.307Z,40.99
2023-05-09T17:08:33.304Z,40.98
2023-05-09T17:09:33.298Z,40.99
2023-05-09T17:10:35.246Z,40.99
2023-05-09T17:11:33.280Z,41.03
2023-05-09T17:12:33.279Z,41.04
2023-05-09T17:13:33.384Z,41.05
2023-05-09T17:14:33.263Z,41.02
2023-05-09T17:15:33.253Z,41.07
2023-05-09T17:16:34.316Z,41.06
2023-05-09T17:17:33.261Z,41.08
2023-05-09T17:18:37.772Z,41.05
2023-05-09T17:19:33.226Z,41.08
2023-05-09T17:20:33.223Z,41.07
2023-05-09T17:21:33.228Z,41.09
2023-05-09T17:22:34.780Z,41.05
2023-05-09T17:23:33.198Z,41.07
2023-05-09T17:24:33.197Z,41.11
2023-05-09T17:25:33.188Z,41.14
2023-05-09T17:26:33.179Z,41.14
2023-05-09T17:27:33.174Z,41.14
2023-05-09T17:28:33.169Z,41.14
2023-05-09T17:29:33.291Z,41.15
2023-05-09T17:30:33.161Z,41.12
2023-05-09T17:31:33.186Z,41.16
2023-05-09T17:32:33.171Z,41.15
2023-05-09T17:33:33.135Z,41.17
2023-05-09T17:34:33.123Z,41.16
2023-05-09T17:35:33.115Z,41.17
2023-05-09T17:36:33.111Z,41.20
2023-05-09T17:37:33.109Z,41.18
2023-05-09T17:38:33.110Z,41.16
2023-05-09T17:39:33.098Z,41.10
2023-05-09T17:40:33.084Z,41.18
2023-05-09T17:41:33.083Z,41.20
2023-05-09T17:42:33.079Z,41.18
2023-05-09T17:43:33.072Z,41.21
2023-05-09T17:44:33.078Z,41.19
2023-05-09T17:45:33.487Z,41.22
2023-05-09T17:46:33.121Z,41.23
2023-05-09T17:47:33.076Z,41.26
2023-05-09T17:48:33.052Z,41.27
2023-05-09T17:49:33.030Z,41.23
2023-05-09T17:50:33.037Z,41.24
2023-05-09T17:51:33.033Z,41.27
2023-05-09T17:52:33.011Z,41.27
2023-05-09T17:53:33.013Z,41.28
2023-05-09T17:54:33.004Z,41.28
2023-05-09T17:55:32.996Z,41.28
2023-05-09T17:56:32.989Z,41.27
2023-05-09T17:57:32.979Z,41.33
2023-05-09T17:58:34.549Z,41.29
2023-05-09T17:59:33.096Z,41.28
2023-05-09T18:00:33.130Z,41.32
2023-05-09T18:01:33.393Z,41.30
2023-05-09T18:02:33.331Z,41.29
2023-05-09T18:03:33.358Z,41.25
2023-05-09T18:04:33.301Z,41.35
2023-05-09T18:05:33.341Z,41.34
2023-05-09T18:06:33.359Z,41.35
2023-05-09T18:07:33.409Z,41.38
2023-05-09T18:08:33.464Z,41.38
2023-05-09T18:09:33.475Z,41.32
2023-05-09T18:10:33.533Z,41.35
2023-05-09T18:11:33.635Z,41.38
2023-05-09T18:12:35.656Z,41.35
2023-05-09T18:13:33.603Z,41.37
2023-05-09T18:14:33.598Z,41.32
2023-05-09T18:15:33.590Z,41.36
2023-05-09T18:16:33.637Z,41.41
2023-05-09T18:17:33.722Z,41.36
2023-05-09T18:18:33.560Z,41.33
2023-05-09T18:19:33.558Z,41.35
2023-05-09T18:20:33.548Z,41.33
2023-05-09T18:21:33.542Z,41.33
2023-05-09T18:22:33.547Z,41.33
2023-05-09T18:23:33.534Z,41.33
2023-05-09T18:24:33.524Z,41.36
2023-05-09T18:25:33.512Z,41.36
2023-05-09T18:26:33.505Z,41.38
2023-05-09T18:27:33.496Z,41.38
2023-05-09T18:28:33.492Z,41.36
2023-05-09T18:29:33.486Z,41.34
2023-05-09T18:30:33.495Z,41.33
2023-05-09T18:31:33.514Z,41.37
2023-05-09T18:32:33.494Z,41.34
2023-05-09T18:33:33.595Z,41.33
2023-05-09T18:34:33.453Z,41.37
2023-05-09T18:35:33.451Z,41.30
2023-05-09T18:36:33.438Z,41.37
2023-05-09T18:37:33.437Z,41.34
2023-05-09T18:38:33.456Z,41.32
2023-05-09T18:39:33.509Z,41.29
2023-05-09T18:40:33.546Z,41.33
2023-05-09T18:41:33.605Z,41.33
2023-05-09T18:42:33.645Z,41.32
2023-05-09T18:43:33.692Z,41.31
2023-05-09T18:44:33.737Z,41.32
2023-05-09T18:45:33.761Z,41.31
2023-05-09T18:46:34.074Z,41.36
2023-05-09T18:47:33.881Z,41.34
2023-05-09T18:48:33.890Z,41.39
2023-05-09T18:49:34.060Z,41.35
2023-05-09T18:50:33.986Z,41.39
2023-05-09T18:51:34.054Z,41.36
2023-05-09T18:52:34.091Z,41.40
2023-05-09T18:53:34.150Z,41.41
2023-05-09T18:54:34.184Z,41.40
2023-05-09T18:55:34.236Z,41.39
2023-05-09T18:56:34.290Z,41.37
2023-05-09T18:57:34.323Z,41.41
2023-05-09T18:58:34.361Z,41.38
2023-05-09T18:59:34.406Z,41.38
2023-05-09T19:00:34.487Z,41.42
2023-05-09T19:01:34.491Z,41.39
2023-05-09T19:02:34.558Z,41.41
2023-05-09T19:03:34.593Z,41.38
2023-05-09T19:04:34.776Z,41.42
2023-05-09T19:05:34.821Z,41.39
2023-05-09T19:06:34.798Z,41.39
2023-05-09T19:07:34.822Z,41.46
2023-05-09T19:08:34.861Z,41.41
2023-05-09T19:09:34.926Z,41.47
2023-05-09T19:10:34.944Z,41.42
2023-05-09T19:11:35.007Z,41.42
2023-05-09T19:12:35.047Z,41.43
2023-05-09T19:13:35.153Z,41.43
2023-05-09T19:14:35.137Z,41.46
2023-05-09T19:15:35.179Z,41.45
2023-05-09T19:16:35.339Z,41.49
2023-05-09T19:17:35.362Z,41.44
2023-05-09T19:18:35.352Z,41.42
2023-05-09T19:19:35.402Z,41.48
2023-05-09T19:20:35.423Z,41.44
2023-05-09T19:21:35.534Z,41.47
2023-05-09T19:22:35.551Z,41.42
2023-05-09T19:23:35.608Z,41.39
2023-05-09T19:24:35.662Z,41.42
2023-05-09T19:25:35.682Z,41.43
2023-05-09T19:26:35.751Z,41.42
2023-05-09T19:27:35.806Z,41.39
2023-05-09T19:28:35.822Z,41.41
2023-05-09T19:29:35.871Z,41.37
2023-05-09T19:30:36.066Z,41.36
2023-05-09T19:31:36.020Z,41.38
2023-05-09T19:32:36.052Z,41.35
2023-05-09T19:33:36.094Z,41.36
2023-05-09T19:34:36.162Z,41.37
2023-05-09T19:35:36.213Z,41.33
2023-05-09T19:36:36.544Z,41.35
2023-05-09T19:37:36.351Z,41.32
2023-05-09T19:38:36.362Z,41.36
2023-05-09T19:39:36.410Z,41.32
2023-05-09T19:40:36.469Z,41.36
2023-05-09T19:41:36.545Z,41.36
2023-05-09T19:42:36.587Z,41.33